Time;durP1;ratioP1;P1;durP2;ratioP2;P2;SDS_P1;SDS_P2;PMS_P1;PMS_P2;Temp;Humidity;BMP_temperature;BMP_pressure;BME280_temperature;BME280_humidity;BME280_pressure;Samples;Min_cycle;Max_cycle;Signal;HPM_P1;HPM_P2
2023/01/13 06:03:39;;;;;;;1.85;0.22;;;10.70;99.90;;;;;;4958263;23;20337;-69
2023/01/13 06:06:07;;;;;;;1.10;0.28;;;10.60;99.90;;;;;;4956376;29;20036;-71
2023/01/13 06:08:33;;;;;;;1.40;0.20;;;10.50;99.90;;;;;;4946802;29;20031;-71
2023/01/13 06:10:59;;;;;;;1.35;0.35;;;10.50;99.90;;;;;;4946160;29;20102;-71
2023/01/13 06:13:25;;;;;;;1.00;0.22;;;10.50;99.90;;;;;;4960780;29;20051;-71
2023/01/13 06:15:55;;;;;;;0.63;0.30;;;10.60;99.90;;;;;;4948282;28;20039;-71
2023/01/13 06:18:21;;;;;;;1.67;0.20;;;10.60;99.90;;;;;;4947047;29;20035;-72
2023/01/13 06:20:46;;;;;;;1.33;0.20;;;10.70;99.90;;;;;;4945560;29;20326;-71
2023/01/13 06:23:12;;;;;;;2.08;0.17;;;10.60;99.90;;;;;;4946704;29;20194;-70
2023/01/13 06:25:55;;;;;;;1.23;0.20;;;10.60;99.90;;;;;;4945665;29;20027;-71
2023/01/13 06:28:21;;;;;;;1.70;0.20;;;10.60;99.90;;;;;;4945770;29;20052;-70
2023/01/13 06:30:55;;;;;;;0.65;0.10;;;10.60;99.90;;;;;;4946353;29;20035;-71
2023/01/13 06:33:26;;;;;;;0.90;0.17;;;10.60;99.90;;;;;;4946434;29;20043;-71
2023/01/13 06:35:58;;;;;;;0.82;0.20;;;10.50;99.90;;;;;;4946116;29;20080;-71
2023/01/13 06:38:26;;;;;;;1.75;0.20;;;10.60;99.90;;;;;;4946532;29;20123;-73
2023/01/13 06:40:52;;;;;;;0.40;0.13;;;10.60;99.90;;;;;;4946319;29;20027;-73
2023/01/13 06:43:18;;;;;;;0.70;0.20;;;10.60;99.90;;;;;;4945105;29;20039;-69
2023/01/13 06:45:54;;;;;;;1.48;0.20;;;10.60;99.90;;;;;;4946457;29;20028;-70
2023/01/13 06:48:27;;;;;;;1.55;0.45;;;10.60;99.90;;;;;;4946029;29;20036;-70
2023/01/13 06:50:53;;;;;;;2.05;0.60;;;10.50;99.90;;;;;;4945689;29;20027;-71
2023/01/13 06:53:19;;;;;;;0.55;0.10;;;10.50;99.90;;;;;;4946181;29;20027;-70
2023/01/13 06:55:45;;;;;;;1.08;0.20;;;10.40;99.90;;;;;;4946028;29;20047;-72
2023/01/13 06:58:11;;;;;;;1.67;0.28;;;10.40;99.90;;;;;;4946987;29;20422;-72
2023/01/13 07:00:37;;;;;;;1.00;0.20;;;10.40;99.90;;;;;;4948990;29;20063;-71
2023/01/13 07:03:08;;;;;;;1.48;0.38;;;10.40;99.90;;;;;;4934523;29;20044;-71
2023/01/13 07:05:33;;;;;;;1.45;0.28;;;10.50;99.90;;;;;;4927049;29;20354;-70
2023/01/13 07:07:59;;;;;;;1.17;0.20;;;10.50;99.90;;;;;;4941223;29;20055;-70
2023/01/13 07:10:25;;;;;;;1.30;0.30;;;10.50;99.90;;;;;;4934259;29;20221;-72
2023/01/13 07:15:36;;;;;;;1.90;0.65;;;10.40;99.90;;;;;;4934365;29;20035;-71
2023/01/13 07:18:02;;;;;;;2.20;0.40;;;10.40;99.90;;;;;;4943348;29;20075;-69
2023/01/13 07:20:29;;;;;;;2.45;0.20;;;10.40;99.90;;;;;;4939946;29;20095;-70
2023/01/13 07:22:55;;;;;;;1.10;0.20;;;10.30;99.90;;;;;;4939303;29;20064;-71
2023/01/13 07:25:22;;;;;;;0.77;0.20;;;10.30;99.90;;;;;;4926244;29;20032;-70
2023/01/13 07:27:47;;;;;;;0.70;0.20;;;10.30;99.90;;;;;;4937280;29;20095;-70
2023/01/13 07:30:13;;;;;;;0.90;0.15;;;10.30;99.90;;;;;;4943858;29;20304;-70
2023/01/13 07:32:39;;;;;;;0.80;0.20;;;10.20;99.90;;;;;;4945508;29;20090;-70
2023/01/13 07:35:05;;;;;;;0.30;0.10;;;10.20;99.90;;;;;;4943909;29;20036;-69
2023/01/13 07:37:36;;;;;;;1.15;0.15;;;10.30;99.90;;;;;;4926329;29;20103;-70
2023/01/13 07:40:04;;;;;;;1.00;0.20;;;10.30;99.90;;;;;;4924787;29;20043;-69
2023/01/13 07:45:14;;;;;;;0.70;0.10;;;10.50;99.90;;;;;;4925861;29;20040;-69
2023/01/13 07:47:40;;;;;;;0.60;0.17;;;10.60;99.90;;;;;;4925888;29;20072;-70
2023/01/13 07:50:07;;;;;;;1.05;0.20;;;10.60;99.90;;;;;;4925624;29;20091;-70
2023/01/13 07:52:33;;;;;;;0.82;0.10;;;10.60;99.90;;;;;;4930117;29;20016;-70
2023/01/13 07:54:58;;;;;;;0.55;0.10;;;10.60;99.90;;;;;;4944367;29;20034;-70
2023/01/13 07:57:24;;;;;;;0.60;0.10;;;10.60;99.90;;;;;;4945151;29;20023;-71
2023/01/13 07:59:50;;;;;;;0.30;0.10;;;10.60;99.90;;;;;;4944607;29;20047;-72
2023/01/13 08:02:16;;;;;;;1.00;0.20;;;10.70;99.90;;;;;;4938282;29;20055;-71
2023/01/13 08:04:42;;;;;;;1.02;0.10;;;10.80;99.90;;;;;;4925696;29;20024;-70
2023/01/13 08:07:07;;;;;;;0.30;0.10;;;10.90;99.90;;;;;;4925367;29;20040;-71
2023/01/13 08:09:33;;;;;;;1.05;0.10;;;11.00;99.90;;;;;;4925479;29;20032;-72
2023/01/13 08:14:43;;;;;;;0.40;0.10;;;11.10;99.90;;;;;;4925593;29;20210;-70
2023/01/13 08:17:09;;;;;;;3.30;0.20;;;11.10;99.90;;;;;;4925135;29;20051;-69
2023/01/13 08:19:35;;;;;;;0.20;0.00;;;11.20;99.90;;;;;;4925080;29;20032;-69
2023/01/13 08:22:01;;;;;;;1.92;0.10;;;11.20;99.90;;;;;;4925257;29;20055;-72
2023/01/13 08:24:27;;;;;;;1.38;0.15;;;11.20;99.90;;;;;;4925752;29;20059;-71
2023/01/13 08:26:53;;;;;;;0.22;0.08;;;11.30;99.90;;;;;;4931147;29;20191;-72
2023/01/13 08:29:19;;;;;;;1.65;0.20;;;11.40;99.90;;;;;;4943964;29;20177;-70
2023/01/13 08:31:48;;;;;;;0.60;0.10;;;11.50;99.90;;;;;;4944571;29;20034;-72
2023/01/13 08:34:14;;;;;;;1.60;0.40;;;11.40;99.90;;;;;;4942918;29;20358;-70
2023/01/13 08:36:40;;;;;;;0.63;0.17;;;11.40;99.90;;;;;;4937152;29;20043;-70
2023/01/13 08:39:05;;;;;;;0.80;0.10;;;11.30;99.90;;;;;;4924955;29;20195;-71
2023/01/13 08:44:15;;;;;;;2.55;0.28;;;11.00;99.90;;;;;;4925350;29;20028;-70
2023/01/13 08:46:41;;;;;;;0.75;0.20;;;10.70;99.90;;;;;;4925694;29;20039;-71
2023/01/13 08:49:07;;;;;;;1.55;0.30;;;10.40;99.90;;;;;;4924967;29;20067;-71
2023/01/13 08:51:33;;;;;;;1.13;0.63;;;10.00;99.90;;;;;;4925651;29;20362;-70
2023/01/13 08:53:59;;;;;;;0.93;0.20;;;9.80;99.90;;;;;;4924973;29;20028;-71
2023/01/13 08:56:25;;;;;;;1.08;0.20;;;9.70;99.90;;;;;;4925614;29;20032;-71
2023/01/13 08:58:51;;;;;;;0.85;0.10;;;9.80;99.90;;;;;;4925387;29;20066;-74
2023/01/13 09:01:21;;;;;;;1.95;0.20;;;9.80;99.90;;;;;;4925100;29;20259;-70
2023/01/13 09:03:47;;;;;;;1.20;0.20;;;9.80;99.90;;;;;;4925119;29;20047;-72
2023/01/13 09:06:13;;;;;;;0.65;0.20;;;9.80;99.90;;;;;;4925222;29;20044;-71
2023/01/13 09:08:39;;;;;;;1.35;0.30;;;9.80;99.90;;;;;;4923632;29;20024;-72
2023/01/13 09:13:10;;;;;;;2.92;0.28;;;9.80;99.90;;;;;;4929920;29;20028;-72
2023/01/13 09:13:51;;;;;;;1.00;0.20;;;9.80;99.90;;;;;;4926214;29;20036;-72
2023/01/13 09:16:17;;;;;;;1.17;0.30;;;9.60;99.90;;;;;;4928357;29;20211;-72
2023/01/13 09:18:42;;;;;;;0.82;0.20;;;9.40;99.90;;;;;;4927477;29;20199;-71
2023/01/13 09:21:10;;;;;;;1.65;0.20;;;9.30;99.90;;;;;;4928088;29;20047;-72
2023/01/13 09:23:35;;;;;;;1.10;0.10;;;9.10;99.90;;;;;;4928968;29;20044;-72
2023/01/13 09:26:01;;;;;;;0.68;0.10;;;9.00;99.90;;;;;;4920558;29;20362;-72
2023/01/13 09:28:27;;;;;;;0.85;0.10;;;8.90;99.90;;;;;;4945332;29;20044;-72
2023/01/13 09:30:53;;;;;;;0.38;0.10;;;8.70;99.90;;;;;;4947412;29;20032;-71
2023/01/13 09:36:03;;;;;;;0.52;0.13;;;8.70;99.90;;;;;;4947033;29;20071;-73
2023/01/13 09:38:28;;;;;;;0.50;0.10;;;8.70;99.90;;;;;;4929049;29;20048;-72
2023/01/13 09:40:55;;;;;;;1.52;0.20;;;8.80;99.90;;;;;;4928364;29;20040;-72
2023/01/13 09:49:19;;;;;;;0.20;0.00;;;9.20;99.90;;;;;;4927572;29;20064;-72
2023/01/13 09:51:57;;;;;;;0.40;0.10;;;9.50;99.90;;;;;;4928042;29;20385;-72
2023/01/13 09:54:45;;;;;;;0.47;0.15;;;9.60;99.90;;;;;;4927562;29;20083;-73
2023/01/13 09:57:16;;;;;;;1.20;0.10;;;9.60;99.90;;;;;;4927617;29;20270;-72
2023/01/13 09:59:43;;;;;;;1.30;0.20;;;9.70;99.90;;;;;;4926620;29;20047;-72
2023/01/13 10:02:30;;;;;;;1.48;0.30;;;9.70;99.90;;;;;;4922275;29;20076;-72
2023/01/13 10:05:14;;;;;;;1.52;0.20;;;9.80;99.90;;;;;;4927804;29;20044;-72
2023/01/13 10:07:49;;;;;;;0.50;0.10;;;9.90;99.90;;;;;;4928141;29;20125;-74
2023/01/13 10:10:32;;;;;;;0.82;0.20;;;9.90;99.90;;;;;;4934245;29;20044;-71
2023/01/13 10:13:13;;;;;;;0.40;0.10;;;9.90;99.90;;;;;;4927867;29;20032;-71
2023/01/13 10:15:55;;;;;;;1.58;0.35;;;9.80;99.90;;;;;;4928248;29;20365;-72
2023/01/13 10:18:27;;;;;;;3.40;0.20;;;9.90;99.90;;;;;;4927519;29;20129;-74
2023/01/13 10:21:20;;;;;;;0.82;0.30;;;9.90;99.90;;;;;;4927619;29;20036;-70
2023/01/13 10:24:21;;;;;;;0.77;0.13;;;9.80;99.90;;;;;;4928110;29;20036;-71
2023/01/13 10:26:49;;;;;;;2.80;0.20;;;9.80;99.90;;;;;;4930468;29;20039;-72
2023/01/13 10:29:24;;;;;;;2.17;0.20;;;9.70;99.90;;;;;;4946091;29;20086;-73
2023/01/13 10:31:51;;;;;;;1.55;0.28;;;9.80;99.90;;;;;;4946591;29;20095;-71
2023/01/13 10:34:19;;;;;;;1.45;0.20;;;9.70;99.90;;;;;;4946089;29;20038;-69
2023/01/13 10:37:01;;;;;;;4.50;2.22;;;9.90;99.90;;;;;;4946589;29;20043;-71
2023/01/13 10:39:37;;;;;;;2.05;0.38;;;9.90;99.90;;;;;;4946565;29;20032;-69
2023/01/13 10:42:05;;;;;;;3.10;0.45;;;9.90;99.90;;;;;;4946105;29;20226;-69
2023/01/13 10:44:31;;;;;;;1.90;0.23;;;10.00;99.90;;;;;;4946053;29;20038;-71
2023/01/13 10:46:58;;;;;;;0.65;0.10;;;10.10;99.90;;;;;;4946382;29;20190;-70
2023/01/13 10:49:35;;;;;;;1.80;0.20;;;10.20;99.90;;;;;;4945909;29;20038;-70
2023/01/13 10:52:03;;;;;;;2.72;0.47;;;10.30;99.90;;;;;;4945882;29;20185;-69
2023/01/13 10:54:29;;;;;;;4.25;0.22;;;10.30;99.90;;;;;;4946018;29;20094;-70
2023/01/13 10:57:27;;;;;;;1.55;0.25;;;10.20;99.90;;;;;;4945802;29;20031;-70
2023/01/13 10:59:54;;;;;;;2.22;0.60;;;10.10;99.90;;;;;;4914046;29;20054;-70
2023/01/13 11:02:28;;;;;;;1.33;0.30;;;10.10;99.90;;;;;;4933248;29;20084;-71
2023/01/13 11:05:08;;;;;;;2.22;0.35;;;10.00;99.90;;;;;;4926226;29;20032;-70
2023/01/13 11:07:40;;;;;;;1.33;0.30;;;9.90;99.90;;;;;;4926866;29;20028;-70
2023/01/13 11:10:08;;;;;;;0.88;0.20;;;9.70;99.90;;;;;;4933095;29;20101;-69
2023/01/13 11:12:46;;;;;;;;;;;9.60;99.90;;;;;;4927423;29;20032;-72
2023/01/13 11:15:18;;;;;;;1.50;0.28;;;9.30;99.90;;;;;;4926249;29;19918;-72
2023/01/13 11:18:03;;;;;;;1.50;0.30;;;9.20;99.90;;;;;;4926998;29;20093;-72
2023/01/13 11:20:42;;;;;;;2.05;0.40;;;9.20;99.90;;;;;;4925460;29;20063;-74
2023/01/13 11:23:26;;;;;;;3.33;0.50;;;9.20;99.90;;;;;;4925041;29;20040;-75
2023/01/13 11:26:05;;;;;;;0.82;0.20;;;9.20;99.90;;;;;;4926810;29;20091;-77
2023/01/13 11:28:46;;;;;;;1.50;0.20;;;9.20;99.90;;;;;;4944443;29;20381;-73
2023/01/13 11:31:24;;;;;;;1.08;0.20;;;9.20;99.90;;;;;;4944853;29;20031;-73
2023/01/13 11:34:18;;;;;;;1.45;0.25;;;9.20;99.90;;;;;;4945013;29;20027;-74
2023/01/13 11:36:49;;;;;;;2.17;0.20;;;9.20;99.90;;;;;;4945154;29;20091;-72
2023/01/13 11:39:39;;;;;;;1.70;0.30;;;9.10;99.90;;;;;;4944037;29;20040;-71
2023/01/13 11:42:30;;;;;;;2.55;0.30;;;9.10;99.90;;;;;;4944740;29;20436;-71
2023/01/13 11:45:17;;;;;;;1.42;0.30;;;9.00;99.90;;;;;;4944870;29;20038;-72
2023/01/13 11:47:54;;;;;;;1.57;0.10;;;9.00;99.90;;;;;;4945213;29;20091;-73
2023/01/13 11:50:47;;;;;;;1.27;0.30;;;9.00;99.90;;;;;;4944250;29;20483;-68
2023/01/13 11:53:31;;;;;;;2.90;0.40;;;9.00;99.90;;;;;;4944440;29;20043;-69
2023/01/13 11:56:23;;;;;;;2.63;0.50;;;9.20;99.90;;;;;;4945188;29;20067;-73
2023/01/13 11:59:22;;;;;;;1.35;0.15;;;9.40;99.90;;;;;;4944961;29;20376;-69
2023/01/13 12:01:59;;;;;;;1.33;0.40;;;9.40;99.90;;;;;;4940548;29;20051;-71
2023/01/13 12:04:33;;;;;;;1.58;0.30;;;9.70;99.90;;;;;;4921360;29;20035;-73
2023/01/13 12:07:17;;;;;;;1.83;0.40;;;10.40;99.90;;;;;;4925792;29;20036;-73
2023/01/13 12:10:06;;;;;;;1.33;0.30;;;11.40;99.90;;;;;;4931081;29;20074;-74
2023/01/13 12:12:33;;;;;;;2.00;0.30;;;12.40;99.90;;;;;;4909816;29;20036;-72
2023/01/13 12:15:21;;;;;;;1.88;0.30;;;12.40;99.90;;;;;;4934077;29;20020;-72
2023/01/13 12:18:19;;;;;;;1.70;0.40;;;12.30;99.90;;;;;;4936641;29;20040;-74
2023/01/13 12:21:30;;;;;;;3.45;0.40;;;11.80;99.90;;;;;;4942263;29;20059;-72
2023/01/13 12:24:11;;;;;;;1.35;0.30;;;11.40;99.90;;;;;;4921581;29;20115;-71
2023/01/13 12:26:42;;;;;;;2.55;0.65;;;10.80;99.90;;;;;;4928951;29;20031;-72
2023/01/13 12:29:17;;;;;;;2.58;0.50;;;11.20;99.90;;;;;;4943391;29;20261;-72
2023/01/13 12:31:47;;;;;;;1.83;0.45;;;11.20;99.90;;;;;;4925716;29;20083;-71
2023/01/13 12:34:29;;;;;;;3.78;0.50;;;11.60;99.90;;;;;;4925295;29;20036;-72
2023/01/13 12:37:16;;;;;;;2.78;0.52;;;11.50;99.90;;;;;;4925490;29;20092;-72
2023/01/13 12:39:41;;;;;;;2.20;0.52;;;11.80;99.90;;;;;;4925542;29;20333;-72
2023/01/13 12:45:20;;;;;;;2.90;0.77;;;12.40;99.90;;;;;;4922971;29;20048;-73
2023/01/13 12:47:45;;;;;;;2.92;0.98;;;12.60;99.90;;;;;;4938117;29;20031;-73
2023/01/13 12:50:20;;;;;;;3.10;0.70;;;12.60;99.80;;;;;;4929910;29;20046;-73
2023/01/13 12:52:47;;;;;;;4.45;0.65;;;13.20;99.70;;;;;;4937456;29;20032;-72
2023/01/13 12:55:16;;;;;;;2.85;0.93;;;14.10;97.60;;;;;;4928725;29;20074;-73
2023/01/13 12:57:54;;;;;;;3.42;0.70;;;14.20;96.00;;;;;;4928862;29;20039;-73
2023/01/13 13:00:20;;;;;;;4.80;0.50;;;14.00;94.40;;;;;;4928175;29;20056;-70
2023/01/13 13:03:08;;;;;;;4.78;0.73;;;13.80;93.70;;;;;;4928506;29;20115;-71
2023/01/13 13:05:55;;;;;;;5.05;0.80;;;13.50;94.10;;;;;;4929028;29;20080;-71
2023/01/13 13:08:42;;;;;;;3.00;0.40;;;13.50;93.50;;;;;;4928356;29;20317;-71
2023/01/13 13:13:16;;;;;;;2.38;0.50;;;13.20;93.30;;;;;;4927856;29;20046;-71
2023/01/13 13:14:12;;;;;;;4.93;0.70;;;13.00;93.90;;;;;;4928656;29;20051;-70
2023/01/13 13:16:50;;;;;;;4.22;0.63;;;12.90;93.90;;;;;;4928843;29;20028;-72
2023/01/13 13:19:16;;;;;;;2.63;0.60;;;13.10;93.50;;;;;;4928096;29;20066;-72
2023/01/13 13:22:13;;;;;;;3.95;1.00;;;13.00;93.70;;;;;;4928732;29;20059;-72
2023/01/13 13:25:02;;;;;;;3.88;0.70;;;12.90;93.20;;;;;;4928616;29;20059;-71
2023/01/13 13:27:30;;;;;;;8.65;1.02;;;12.40;94.10;;;;;;4928272;29;20051;-71
2023/01/13 13:30:02;;;;;;;;;;;12.00;94.40;;;;;;4928612;29;20340;-71
2023/01/13 13:32:55;;;;;;;5.68;0.88;;;11.90;94.80;;;;;;4927870;29;20148;-71
2023/01/13 13:35:32;;;;;;;4.15;0.65;;;12.30;94.40;;;;;;4909035;29;20048;-73
2023/01/13 13:47:05;;;;;;;2.45;0.47;;;12.80;93.80;;;;;;4908840;29;20037;-75
2023/01/13 13:49:40;;;;;;;4.55;0.63;;;12.80;93.10;;;;;;4908764;29;20036;-74
2023/01/13 13:52:24;;;;;;;5.93;1.15;;;12.10;94.00;;;;;;4909288;29;20035;-73
2023/01/13 13:54:57;;;;;;;4.18;0.88;;;11.70;94.70;;;;;;4909541;29;20048;-74
2023/01/13 13:57:35;;;;;;;4.70;0.63;;;11.60;94.80;;;;;;4908288;29;20047;-72
2023/01/13 14:00:33;;;;;;;5.25;0.93;;;11.70;95.20;;;;;;4908476;29;20055;-76
2023/01/13 14:03:00;;;;;;;2.22;0.43;;;11.30;95.60;;;;;;4911928;29;20218;-73
2023/01/13 14:05:27;;;;;;;3.63;0.50;;;11.00;96.40;;;;;;4927208;29;20047;-72
2023/01/13 14:08:14;;;;;;;3.00;0.40;;;10.80;96.50;;;;;;4927639;29;20040;-72
2023/01/13 14:10:43;;;;;;;1.65;0.45;;;10.50;97.70;;;;;;4934727;29;20020;-72
2023/01/13 14:13:17;;;;;;;2.53;0.40;;;10.20;97.70;;;;;;4927858;29;20091;-73
2023/01/13 14:15:43;;;;;;;2.85;0.45;;;9.90;99.40;;;;;;4928077;29;20099;-71
2023/01/13 14:18:16;;;;;;;3.08;0.40;;;9.80;99.90;;;;;;4927930;29;20186;-72
2023/01/13 14:20:42;;;;;;;5.30;0.95;;;9.50;99.90;;;;;;4927831;29;20059;-73
2023/01/13 14:23:17;;;;;;;1.85;0.28;;;8.50;99.90;;;;;;4927654;29;20040;-72
2023/01/13 14:25:49;;;;;;;2.97;0.22;;;7.80;99.90;;;;;;4927239;29;20359;-73
2023/01/13 14:28:22;;;;;;;3.45;0.40;;;7.50;99.90;;;;;;4943414;29;20070;-71
2023/01/13 14:30:49;;;;;;;2.03;0.30;;;7.30;99.90;;;;;;4946341;29;20030;-73
2023/01/13 14:33:19;;;;;;;1.10;0.20;;;7.20;99.90;;;;;;4945707;29;20032;-72
2023/01/13 14:36:20;;;;;;;2.17;0.30;;;7.10;99.90;;;;;;4947609;29;20024;-71
2023/01/13 14:38:49;;;;;;;3.20;0.50;;;7.10;99.90;;;;;;4946079;29;20035;-71
2023/01/13 14:41:20;;;;;;;2.85;0.30;;;7.00;99.90;;;;;;4945852;29;20266;-71
2023/01/13 14:43:48;;;;;;;2.25;0.50;;;6.90;99.90;;;;;;4945936;29;20337;-71
2023/01/13 14:46:16;;;;;;;1.73;0.30;;;6.90;99.90;;;;;;4946000;29;20039;-74
2023/01/13 14:48:46;;;;;;;3.97;0.50;;;7.00;99.90;;;;;;4946347;29;20039;-72
2023/01/13 14:51:21;;;;;;;3.15;0.45;;;7.10;99.90;;;;;;4946007;29;20035;-75
2023/01/13 14:53:47;;;;;;;2.50;0.47;;;7.20;99.90;;;;;;4946219;29;20038;-72
2023/01/13 14:56:36;;;;;;;4.13;0.90;;;7.20;99.90;;;;;;4945424;29;20035;-72
2023/01/13 14:59:30;;;;;;;2.15;0.55;;;7.10;99.90;;;;;;4945691;29;20070;-73
2023/01/13 15:01:55;;;;;;;3.35;0.40;;;7.00;99.90;;;;;;4939835;29;20063;-73
2023/01/13 15:04:37;;;;;;;2.40;0.30;;;6.90;99.90;;;;;;4922065;29;20051;-72
2023/01/13 15:07:03;;;;;;;2.15;1.42;;;6.80;99.90;;;;;;4927152;29;20036;-72
2023/01/13 15:09:40;;;;;;;1.60;0.40;;;6.80;99.90;;;;;;4929825;29;20108;-71
2023/01/13 15:12:23;;;;;;;2.05;0.30;;;6.90;99.90;;;;;;4928286;29;20081;-73
2023/01/13 15:14:50;;;;;;;3.20;0.60;;;6.90;99.90;;;;;;4926850;29;20028;-72
2023/01/13 15:17:17;;;;;;;2.05;0.57;;;6.90;99.90;;;;;;4926304;29;20058;-72
2023/01/13 15:19:43;;;;;;;4.50;0.90;;;6.90;99.90;;;;;;4926872;29;20056;-70
2023/01/13 15:22:08;;;;;;;4.25;0.68;;;6.90;99.90;;;;;;4926784;29;20072;-72
2023/01/13 15:24:34;;;;;;;2.88;0.77;;;6.90;99.90;;;;;;4925251;29;20032;-69
2023/01/13 15:27:03;;;;;;;4.45;0.65;;;7.00;99.90;;;;;;4933345;29;20103;-70
2023/01/13 15:29:29;;;;;;;3.95;0.95;;;7.00;99.90;;;;;;4944946;29;20321;-72
2023/01/13 15:31:57;;;;;;;2.80;0.68;;;7.00;99.90;;;;;;4945637;29;20107;-77
2023/01/13 15:34:23;;;;;;;3.35;0.77;;;6.90;99.90;;;;;;4945257;29;20066;-75
2023/01/13 15:36:49;;;;;;;2.72;0.70;;;6.80;99.90;;;;;;4945120;29;20036;-76
2023/01/13 15:39:14;;;;;;;3.28;0.80;;;6.80;99.90;;;;;;4943552;29;20103;-73
2023/01/13 15:47:11;;;;;;;3.13;0.90;;;6.60;99.90;;;;;;4944103;29;20027;-77
2023/01/13 15:49:43;;;;;;;3.03;0.90;;;6.50;99.90;;;;;;4944691;29;20027;-72
2023/01/13 15:52:17;;;;;;;2.67;0.90;;;6.50;99.90;;;;;;4944842;29;20043;-75
2023/01/13 15:54:43;;;;;;;3.50;0.80;;;6.40;99.90;;;;;;4943695;29;20035;-73
2023/01/13 15:57:33;;;;;;;3.97;0.70;;;6.30;99.90;;;;;;4944851;29;20034;-71
2023/01/13 16:00:10;;;;;;;6.47;1.05;;;6.30;99.90;;;;;;4945143;29;20066;-71
2023/01/13 16:02:36;;;;;;;5.97;0.55;;;6.30;99.90;;;;;;4928960;29;20052;-70
2023/01/13 16:05:01;;;;;;;2.38;0.57;;;6.20;99.90;;;;;;4925836;29;20036;-70
2023/01/13 16:07:27;;;;;;;6.65;1.08;;;6.20;99.90;;;;;;4925439;29;20080;-71
2023/01/13 16:09:53;;;;;;;2.20;0.85;;;6.20;99.90;;;;;;4932632;29;20050;-72
2023/01/13 16:12:18;;;;;;;4.65;0.93;;;6.20;99.90;;;;;;4925325;29;20024;-71
2023/01/13 16:14:44;;;;;;;5.03;0.93;;;6.20;99.90;;;;;;4924485;29;20060;-72
2023/01/13 16:17:18;;;;;;;5.30;1.00;;;6.30;99.90;;;;;;4925813;29;20182;-72
2023/01/13 16:19:47;;;;;;;3.65;1.10;;;6.40;99.90;;;;;;4925883;29;20047;-74
2023/01/13 16:22:14;;;;;;;6.13;0.90;;;6.30;99.90;;;;;;4908419;29;20222;-72
2023/01/13 16:24:40;;;;;;;4.60;1.13;;;6.30;99.90;;;;;;4924525;29;20104;-72
2023/01/13 16:27:19;;;;;;;3.38;0.98;;;6.40;99.90;;;;;;4932989;29;20217;-71
2023/01/13 16:29:45;;;;;;;2.95;0.93;;;6.30;99.90;;;;;;4944825;29;20099;-72
2023/01/13 16:32:11;;;;;;;3.70;1.40;;;6.20;99.90;;;;;;4944511;29;20039;-73
2023/01/13 16:34:37;;;;;;;3.53;0.98;;;6.10;99.90;;;;;;4944247;29;20039;-72
2023/01/13 16:37:05;;;;;;;3.63;1.35;;;6.00;99.90;;;;;;4944900;29;20074;-71
2023/01/13 16:39:31;;;;;;;5.35;1.15;;;5.80;99.90;;;;;;4938506;29;20044;-71
2023/01/13 16:41:56;;;;;;;4.25;1.23;;;5.70;99.90;;;;;;4933465;29;20194;-73
2023/01/13 16:44:22;;;;;;;3.22;1.08;;;5.60;99.90;;;;;;4933035;29;20386;-71
2023/01/13 16:46:48;;;;;;;4.82;1.30;;;5.50;99.90;;;;;;4944510;29;20038;-71
2023/01/13 16:49:15;;;;;;;10.48;4.05;;;5.40;99.90;;;;;;4931736;29;20293;-72
2023/01/13 16:51:41;;;;;;;8.63;3.90;;;5.40;99.90;;;;;;4925301;29;20051;-70
2023/01/13 16:54:07;;;;;;;6.25;2.50;;;5.30;99.90;;;;;;4925358;29;20094;-70
2023/01/13 16:56:35;;;;;;;6.95;2.10;;;5.30;99.90;;;;;;4926730;29;20107;-71
2023/01/13 16:59:06;;;;;;;6.45;2.45;;;5.30;99.90;;;;;;4944569;29;20035;-71
2023/01/13 17:01:35;;;;;;;6.75;2.03;;;5.30;99.90;;;;;;4943405;29;20063;-71
2023/01/13 17:04:02;;;;;;;6.85;1.40;;;5.30;99.90;;;;;;4918334;29;20199;-71
2023/01/13 17:06:48;;;;;;;6.57;1.25;;;5.60;99.90;;;;;;4925228;29;20095;-72
2023/01/13 17:09:16;;;;;;;10.93;1.33;;;5.60;99.90;;;;;;4925900;29;20034;-72
2023/01/13 17:11:42;;;;;;;6.88;1.40;;;5.80;99.90;;;;;;4929548;29;20032;-71
2023/01/13 17:14:08;;;;;;;8.90;1.40;;;6.00;99.90;;;;;;4932254;29;20024;-72
2023/01/13 17:16:34;;;;;;;9.95;2.60;;;6.10;99.90;;;;;;4942292;29;20376;-71
2023/01/13 17:19:00;;;;;;;7.22;1.95;;;6.20;99.90;;;;;;4944306;29;20035;-72
2023/01/13 17:21:25;;;;;;;6.55;1.52;;;6.30;99.90;;;;;;4943928;29;20028;-72
2023/01/13 17:23:51;;;;;;;6.88;1.75;;;6.40;99.90;;;;;;4944219;29;20028;-72
2023/01/13 17:26:31;;;;;;;6.25;1.55;;;6.40;99.90;;;;;;4942279;29;20028;-71
2023/01/13 17:28:59;;;;;;;7.30;1.80;;;6.50;99.90;;;;;;4924040;29;20075;-73
2023/01/13 17:31:24;;;;;;;6.33;1.50;;;6.50;99.90;;;;;;4923443;29;20040;-72
2023/01/13 17:33:50;;;;;;;6.18;1.20;;;6.60;99.90;;;;;;4924934;29;20039;-73
2023/01/13 17:36:16;;;;;;;4.82;1.45;;;6.70;99.90;;;;;;4927890;29;20035;-72
2023/01/13 17:38:42;;;;;;;6.82;2.33;;;6.80;99.90;;;;;;4925999;29;20087;-72
2023/01/13 17:41:08;;;;;;;6.50;1.45;;;6.90;99.90;;;;;;4927928;29;20052;-72
2023/01/13 17:43:36;;;;;;;8.73;1.30;;;7.00;99.90;;;;;;4927956;29;20024;-72
2023/01/13 17:46:07;;;;;;;7.18;1.63;;;7.10;99.90;;;;;;4927169;29;20028;-71
2023/01/13 17:48:33;;;;;;;6.10;1.50;;;7.30;99.90;;;;;;4936890;29;20103;-72
2023/01/13 17:50:59;;;;;;;5.70;1.30;;;7.30;99.90;;;;;;4947187;29;20027;-73
2023/01/13 17:53:25;;;;;;;3.58;1.40;;;7.30;99.90;;;;;;4947144;29;20051;-71
2023/01/13 17:55:53;;;;;;;5.57;1.30;;;7.30;99.90;;;;;;4947238;29;20046;-74
2023/01/13 17:58:20;;;;;;;6.20;1.40;;;7.20;99.90;;;;;;4947204;29;20106;-72
2023/01/13 18:00:46;;;;;;;7.95;1.70;;;7.30;99.90;;;;;;4946513;29;20035;-73
2023/01/13 18:03:12;;;;;;;8.25;2.05;;;7.20;99.90;;;;;;4933802;29;20330;-72
2023/01/13 18:05:38;;;;;;;10.20;2.17;;;7.20;99.90;;;;;;4927588;29;20076;-72
2023/01/13 18:08:04;;;;;;;6.97;1.50;;;7.10;99.90;;;;;;4928295;29;20110;-72
2023/01/13 18:10:31;;;;;;;7.53;1.75;;;7.20;99.90;;;;;;4927482;29;20028;-71
2023/01/13 18:12:57;;;;;;;6.05;1.90;;;7.20;99.90;;;;;;4928170;29;20028;-74
2023/01/13 18:15:22;;;;;;;8.05;1.77;;;7.20;99.90;;;;;;4927532;29;20059;-73
2023/01/13 18:17:48;;;;;;;7.07;1.60;;;7.20;99.90;;;;;;4926587;29;20056;-71
2023/01/13 18:28:29;;;;;;;6.70;1.75;;;7.10;99.90;;;;;;4944257;29;20059;-72
2023/01/13 18:30:55;;;;;;;5.93;1.42;;;7.10;99.90;;;;;;4946835;29;20039;-73
2023/01/13 18:33:20;;;;;;;8.23;1.50;;;7.00;99.90;;;;;;4946610;29;20099;-73
2023/01/13 18:35:46;;;;;;;7.28;1.50;;;6.90;99.90;;;;;;4945745;29;20397;-73
2023/01/13 18:38:33;;;;;;;4.60;1.63;;;6.80;99.90;;;;;;4946362;29;20071;-72
2023/01/13 18:42:49;;;;;;;6.80;2.10;;;6.80;99.90;;;;;;4946286;29;20128;-71
2023/01/13 18:43:46;;;;;;;9.57;1.70;;;6.80;99.90;;;;;;4945584;29;20035;-73
2023/01/13 18:46:12;;;;;;;7.32;2.00;;;6.80;99.90;;;;;;4945827;29;20333;-72
2023/01/13 18:48:38;;;;;;;5.30;1.20;;;6.80;99.90;;;;;;4945934;29;20023;-73
2023/01/13 18:51:03;;;;;;;4.45;1.30;;;6.70;99.90;;;;;;4944968;29;20063;-72
2023/01/13 18:53:29;;;;;;;4.97;1.20;;;6.70;99.90;;;;;;4946099;29;20038;-71
2023/01/13 18:55:55;;;;;;;8.38;1.40;;;6.70;99.90;;;;;;4946255;29;20042;-72
2023/01/13 18:58:21;;;;;;;4.22;0.95;;;6.70;99.90;;;;;;4945872;29;20023;-72
2023/01/13 19:00:46;;;;;;;4.18;1.02;;;6.70;99.90;;;;;;4945625;29;20032;-72
2023/01/13 19:03:12;;;;;;;5.55;1.10;;;6.70;99.90;;;;;;4925224;29;20051;-72
2023/01/13 19:05:38;;;;;;;10.05;1.17;;;6.70;99.90;;;;;;4926488;29;20246;-72
2023/01/13 19:08:04;;;;;;;3.90;1.00;;;6.70;99.90;;;;;;4925798;29;20038;-72
2023/01/13 19:10:31;;;;;;;3.90;0.70;;;6.60;99.90;;;;;;4933054;29;20047;-71
2023/01/13 19:12:57;;;;;;;4.45;1.40;;;6.60;99.90;;;;;;4926730;29;20318;-71
2023/01/13 19:15:22;;;;;;;4.72;1.63;;;6.60;99.90;;;;;;4926994;29;20032;-71
2023/01/13 19:17:48;;;;;;;4.22;0.63;;;6.60;99.90;;;;;;4926328;29;20066;-72
2023/01/13 19:20:14;;;;;;;3.35;0.88;;;6.50;99.90;;;;;;4926689;29;20039;-73
2023/01/13 19:22:40;;;;;;;4.03;1.02;;;6.40;99.90;;;;;;4925826;29;20059;-72
2023/01/13 19:25:06;;;;;;;3.95;0.80;;;6.40;99.90;;;;;;4926307;29;20225;-73
2023/01/13 19:27:32;;;;;;;3.28;1.02;;;6.40;99.90;;;;;;4936651;29;20293;-72
2023/01/13 19:30:01;;;;;;;5.03;1.08;;;6.40;99.90;;;;;;4945664;29;20086;-73
2023/01/13 19:32:29;;;;;;;6.05;0.90;;;6.40;99.90;;;;;;4945530;29;20043;-71
2023/01/13 19:34:58;;;;;;;5.75;1.00;;;6.40;99.90;;;;;;4945322;29;20028;-72
2023/01/13 19:37:28;;;;;;;3.40;1.27;;;6.40;99.90;;;;;;4945184;29;20031;-72
2023/01/13 19:39:55;;;;;;;6.45;1.30;;;6.40;99.90;;;;;;4944389;29;20027;-72
2023/01/13 19:47:50;;;;;;;3.08;0.80;;;6.40;99.90;;;;;;4934401;29;20076;-72
2023/01/13 19:50:15;;;;;;;3.88;1.00;;;6.40;99.90;;;;;;4931614;29;20024;-71
2023/01/13 19:52:41;;;;;;;3.88;1.05;;;6.30;99.90;;;;;;4941824;29;20036;-70
2023/01/13 19:55:08;;;;;;;4.70;1.00;;;6.30;99.90;;;;;;4942952;29;20024;-73
2023/01/13 19:57:34;;;;;;;3.65;1.13;;;6.30;99.90;;;;;;4944450;29;20075;-71
2023/01/13 20:00:00;;;;;;;5.53;1.85;;;6.30;99.90;;;;;;4944460;29;20039;-71
2023/01/13 20:02:30;;;;;;;7.88;1.50;;;6.30;99.90;;;;;;4938080;29;20051;-72
2023/01/13 20:04:58;;;;;;;4.68;1.33;;;6.40;99.90;;;;;;4925912;29;20087;-71
2023/01/13 20:07:25;;;;;;;3.03;0.90;;;6.40;99.90;;;;;;4940169;29;20103;-72